Time;durP1;ratioP1;P1;durP2;ratioP2;P2;SDS_P1;SDS_P2;PMS_P1;PMS_P2;Temp;Humidity;BMP_temperature;BMP_pressure;BME280_temperature;BME280_humidity;BME280_pressure;Samples;Min_cycle;Max_cycle;Signal;HPM_P1;HPM_P2
2023/01/05 00:01:09;;;;;;;6.72;3.50;;;6.00;99.90;;;;;;5030771;28;20489;-75
2023/01/05 00:03:35;;;;;;;5.97;4.05;;;6.00;99.90;;;;;;5039689;28;20029;-75
2023/01/05 00:06:12;;;;;;;5.35;3.42;;;5.90;99.90;;;;;;5031361;28;20064;-75
2023/01/05 00:08:39;;;;;;;5.88;3.25;;;5.80;99.90;;;;;;5035919;28;20025;-75
2023/01/05 00:22:33;;;;;;;5.55;3.50;;;6.00;99.90;;;;;;5035133;28;20052;-75
2023/01/05 00:25:08;;;;;;;6.57;3.38;;;6.00;99.90;;;;;;5042338;28;20025;-74
2023/01/05 00:27:33;;;;;;;4.80;2.70;;;6.00;99.90;;;;;;5028864;28;20021;-74
2023/01/05 00:29:59;;;;;;;7.68;3.20;;;5.90;99.90;;;;;;5035949;28;20029;-75
2023/01/05 00:32:26;;;;;;;7.47;4.05;;;5.90;99.90;;;;;;5039980;28;20071;-74
2023/01/05 00:34:58;;;;;;;7.00;4.15;;;6.00;99.90;;;;;;5033744;28;20759;-74
2023/01/05 00:37:31;;;;;;;5.18;3.03;;;6.10;99.90;;;;;;5034728;28;20056;-74
2023/01/05 00:39:57;;;;;;;5.47;3.30;;;6.10;99.90;;;;;;5029641;28;20588;-75
2023/01/05 00:42:23;;;;;;;7.72;4.43;;;6.00;99.90;;;;;;5042933;28;20029;-74
2023/01/05 00:44:48;;;;;;;6.25;3.42;;;5.90;99.90;;;;;;5035127;28;20150;-74
2023/01/05 00:47:14;;;;;;;12.30;2.90;;;5.70;99.90;;;;;;5038314;28;20044;-74
2023/01/05 00:49:40;;;;;;;5.47;3.03;;;5.60;99.90;;;;;;5034318;28;20024;-75
2023/01/05 00:52:06;;;;;;;8.38;3.72;;;5.80;99.90;;;;;;5029403;28;20041;-75
2023/01/05 00:54:32;;;;;;;9.20;3.45;;;5.70;99.90;;;;;;5029541;28;20117;-74
2023/01/05 00:56:58;;;;;;;5.90;3.55;;;5.70;99.90;;;;;;5037545;28;20134;-74
2023/01/05 00:59:24;;;;;;;8.38;4.53;;;5.80;99.90;;;;;;5045980;28;20040;-75
2023/01/05 01:01:52;;;;;;;7.50;3.97;;;5.90;99.90;;;;;;5033948;28;20037;-74
2023/01/05 01:04:18;;;;;;;8.85;4.95;;;6.00;99.90;;;;;;5036099;28;20052;-74
2023/01/05 01:06:44;;;;;;;6.63;3.40;;;6.10;99.90;;;;;;5034699;28;20483;-75
2023/01/05 01:09:10;;;;;;;8.05;3.95;;;6.20;99.90;;;;;;5034037;28;20025;-75
2023/01/05 01:11:36;;;;;;;9.50;4.30;;;6.10;99.90;;;;;;5047691;28;20450;-74
2023/01/05 01:14:04;;;;;;;7.03;3.95;;;6.10;99.90;;;;;;5034990;28;20480;-75
2023/01/05 01:16:30;;;;;;;5.75;3.40;;;6.00;99.90;;;;;;5036897;28;20398;-74
2023/01/05 01:18:56;;;;;;;5.82;3.80;;;5.90;99.90;;;;;;5028307;28;20036;-75
2023/01/05 01:21:22;;;;;;;11.20;3.42;;;5.90;99.90;;;;;;5035662;28;20121;-74
2023/01/05 01:23:48;;;;;;;10.38;4.15;;;5.90;99.90;;;;;;5036948;28;20037;-74
2023/01/05 01:26:13;;;;;;;8.70;4.25;;;6.00;99.90;;;;;;5031450;28;20057;-75
2023/01/05 01:28:39;;;;;;;7.03;3.92;;;6.00;99.90;;;;;;5043296;28;20025;-74
2023/01/05 01:31:05;;;;;;;7.38;3.80;;;5.90;99.90;;;;;;5038029;28;20049;-74
2023/01/05 01:33:32;;;;;;;6.60;3.40;;;5.80;99.90;;;;;;5038340;28;20040;-74
2023/01/05 01:36:01;;;;;;;7.32;3.83;;;5.90;99.90;;;;;;5035698;28;20084;-74
2023/01/05 01:38:27;;;;;;;5.95;3.92;;;5.90;99.90;;;;;;5037026;28;20049;-74
2023/01/05 01:40:53;;;;;;;7.85;4.10;;;5.90;99.90;;;;;;5039443;28;20065;-74
2023/01/05 01:43:38;;;;;;;6.93;2.95;;;6.00;99.90;;;;;;5035932;28;20034;-74
2023/01/05 01:46:04;;;;;;;6.70;3.40;;;5.90;99.90;;;;;;5039101;28;20475;-74
2023/01/05 01:48:31;;;;;;;8.75;2.72;;;5.90;99.90;;;;;;5043368;28;20032;-75
2023/01/05 01:50:57;;;;;;;10.02;3.50;;;5.90;99.90;;;;;;5037810;28;20554;-74
2023/01/05 01:53:30;;;;;;;10.00;3.42;;;5.80;99.90;;;;;;5039516;28;20028;-75
2023/01/05 01:56:01;;;;;;;5.90;3.28;;;5.80;99.90;;;;;;5033713;28;20052;-75
2023/01/05 01:58:29;;;;;;;8.85;4.32;;;5.80;99.90;;;;;;5041079;28;20041;-74
2023/01/05 02:00:55;;;;;;;7.30;3.58;;;5.80;99.90;;;;;;5037553;28;20092;-75
2023/01/05 02:03:21;;;;;;;4.85;2.92;;;5.70;99.90;;;;;;5032838;28;20048;-75
2023/01/05 02:05:47;;;;;;;6.03;3.25;;;5.60;99.90;;;;;;5044369;28;20494;-74
2023/01/05 02:08:15;;;;;;;6.72;3.40;;;5.60;99.90;;;;;;5043974;28;20077;-74
2023/01/05 02:11:17;;;;;;;8.52;4.05;;;5.50;99.90;;;;;;5042683;28;20057;-75
2023/01/05 02:14:19;;;;;;;6.38;3.63;;;5.40;99.90;;;;;;5043327;28;20025;-74
2023/01/05 02:16:56;;;;;;;6.32;4.03;;;5.60;99.90;;;;;;5037582;28;20029;-74
2023/01/05 02:20:11;;;;;;;7.45;3.85;;;5.70;99.90;;;;;;5038930;28;20025;-74
2023/01/05 02:23:12;;;;;;;9.45;3.30;;;5.70;99.90;;;;;;5039181;28;20075;-74
2023/01/05 02:25:51;;;;;;;5.38;3.28;;;5.70;99.90;;;;;;5038738;28;20108;-74
2023/01/05 02:28:46;;;;;;;7.60;3.53;;;5.70;99.90;;;;;;5043166;28;20025;-74
2023/01/05 02:31:12;;;;;;;6.03;3.00;;;5.70;99.90;;;;;;5049811;28;20048;-74
2023/01/05 02:33:57;;;;;;;6.57;2.80;;;5.60;99.90;;;;;;5041282;28;20025;-74
2023/01/05 02:36:38;;;;;;;9.05;3.53;;;5.60;99.90;;;;;;5040961;28;20487;-74
2023/01/05 02:39:13;;;;;;;5.78;2.90;;;5.80;99.90;;;;;;5038319;28;20154;-74
2023/01/05 02:42:00;;;;;;;7.75;3.28;;;5.90;99.90;;;;;;5041220;28;20025;-74
2023/01/05 02:44:30;;;;;;;5.30;2.92;;;5.90;99.90;;;;;;5041479;28;20064;-74
2023/01/05 02:47:06;;;;;;;9.55;3.58;;;5.90;99.90;;;;;;5041256;28;20140;-74
2023/01/05 02:49:39;;;;;;;7.65;3.28;;;5.80;99.90;;;;;;5036565;28;20032;-74
2023/01/05 02:52:07;;;;;;;7.20;3.00;;;5.80;99.90;;;;;;5045265;28;20041;-74
2023/01/05 02:54:40;;;;;;;7.72;3.15;;;5.80;99.90;;;;;;5033831;28;20029;-74
2023/01/05 02:57:16;;;;;;;6.90;2.45;;;5.70;99.90;;;;;;5033851;28;20021;-74
2023/01/05 02:59:48;;;;;;;6.20;2.85;;;5.60;99.90;;;;;;5041023;28;20037;-74
2023/01/05 03:02:29;;;;;;;7.85;3.40;;;5.60;99.90;;;;;;5034674;28;20133;-74
2023/01/05 03:05:22;;;;;;;4.75;2.72;;;5.60;99.90;;;;;;5039313;28;20072;-74
2023/01/05 03:07:50;;;;;;;5.60;3.42;;;5.60;99.90;;;;;;5038063;28;20446;-74
2023/01/05 03:14:03;;;;;;;7.95;3.72;;;5.70;99.90;;;;;;4959655;28;20042;-74
2023/01/05 03:16:15;;;;;;;5.38;2.75;;;5.60;99.90;;;;;;4960807;28;20097;-74
2023/01/05 03:21:26;;;;;;;7.95;3.15;;;5.60;99.90;;;;;;5040434;28;20055;-74
2023/01/05 03:35:35;;;;;;;7.53;3.85;;;5.20;99.90;;;;;;5031589;28;20043;-74
2023/01/05 03:38:25;;;;;;;5.53;3.08;;;5.40;99.90;;;;;;5043129;28;20112;-74
2023/01/05 03:40:54;;;;;;;6.15;3.40;;;5.20;99.90;;;;;;5028939;28;20025;-74
2023/01/05 03:43:21;;;;;;;6.72;3.05;;;5.10;99.90;;;;;;5033246;28;20030;-74
2023/01/05 03:45:56;;;;;;;6.78;3.47;;;5.20;99.90;;;;;;5030211;28;20361;-74
2023/01/05 03:48:24;;;;;;;5.70;3.25;;;5.30;99.90;;;;;;5031457;28;20447;-74
2023/01/05 03:50:50;;;;;;;4.65;2.25;;;5.40;99.90;;;;;;5039319;28;20069;-73
2023/01/05 03:53:16;;;;;;;4.70;2.50;;;5.60;99.90;;;;;;5032429;28;20064;-74
2023/01/05 03:55:41;;;;;;;6.28;2.60;;;5.70;99.90;;;;;;5041462;28;20031;-74
2023/01/05 03:58:08;;;;;;;5.28;2.50;;;5.80;99.90;;;;;;5029856;28;20029;-74
2023/01/05 04:00:33;;;;;;;5.00;2.80;;;5.80;99.90;;;;;;5042850;28;20034;-74
2023/01/05 04:02:59;;;;;;;4.80;2.50;;;5.80;99.90;;;;;;5028489;28;20055;-74
2023/01/05 04:05:25;;;;;;;5.75;3.38;;;5.80;99.90;;;;;;5038222;28;20032;-75
2023/01/05 04:07:51;;;;;;;6.82;3.63;;;5.70;99.90;;;;;;5040668;28;20921;-74
2023/01/05 04:10:17;;;;;;;5.10;3.03;;;5.50;99.90;;;;;;5023448;28;20033;-74
2023/01/05 04:12:45;;;;;;;6.88;2.75;;;5.50;99.90;;;;;;5031067;28;20045;-74
2023/01/05 04:15:10;;;;;;;5.45;2.88;;;5.40;99.90;;;;;;5025099;28;20075;-74
2023/01/05 04:17:36;;;;;;;4.88;2.42;;;5.50;99.90;;;;;;5024002;28;20515;-75
2023/01/05 04:20:04;;;;;;;5.43;2.80;;;5.60;99.90;;;;;;5034792;28;20074;-74
2023/01/05 04:22:30;;;;;;;6.18;2.83;;;5.60;99.90;;;;;;5037482;28;20049;-74
2023/01/05 04:24:56;;;;;;;4.95;3.08;;;5.60;99.90;;;;;;5026105;28;20030;-74
2023/01/05 04:27:22;;;;;;;4.97;2.53;;;5.70;99.90;;;;;;5033227;28;20033;-74
2023/01/05 04:29:48;;;;;;;7.22;2.88;;;5.80;99.90;;;;;;5031499;28;20033;-75
2023/01/05 04:32:13;;;;;;;7.88;3.58;;;5.80;99.90;;;;;;5028523;28;20049;-75
2023/01/05 04:34:39;;;;;;;5.30;2.90;;;5.70;99.90;;;;;;5033823;28;20183;-74
2023/01/05 04:37:04;;;;;;;5.10;2.88;;;5.60;99.90;;;;;;5032001;28;20084;-74
2023/01/05 04:39:30;;;;;;;3.47;2.28;;;5.60;99.90;;;;;;5023336;28;20053;-74
2023/01/05 04:41:56;;;;;;;5.88;2.88;;;5.50;99.90;;;;;;5027743;28;20537;-75
2023/01/05 04:44:21;;;;;;;5.25;2.78;;;5.40;99.90;;;;;;5024198;28;20497;-75
2023/01/05 04:46:47;;;;;;;5.75;2.67;;;5.40;99.90;;;;;;5029029;28;20499;-75
2023/01/05 04:49:13;;;;;;;6.65;2.25;;;5.60;99.90;;;;;;5032593;28;20487;-75
2023/01/05 04:51:38;;;;;;;6.65;3.85;;;5.70;99.90;;;;;;5028336;28;20033;-74
2023/01/05 04:54:04;;;;;;;7.32;2.92;;;5.60;99.90;;;;;;5034854;28;20116;-74
2023/01/05 04:56:29;;;;;;;4.70;2.40;;;5.50;99.90;;;;;;5031478;28;20029;-74
2023/01/05 04:58:55;;;;;;;4.88;2.30;;;5.50;99.90;;;;;;5027945;28;20030;-75
2023/01/05 05:01:21;;;;;;;6.72;2.85;;;5.50;99.90;;;;;;5025524;28;20491;-74
2023/01/05 05:03:46;;;;;;;4.72;2.08;;;5.60;99.90;;;;;;5021654;28;20033;-75
2023/01/05 05:06:12;;;;;;;5.72;2.33;;;5.60;99.90;;;;;;5037048;28;20037;-74
2023/01/05 05:08:37;;;;;;;6.05;3.40;;;5.60;99.90;;;;;;5025332;28;20498;-74
2023/01/05 05:11:04;;;;;;;10.25;3.80;;;5.40;99.90;;;;;;5027296;28;20034;-74
2023/01/05 05:13:30;;;;;;;5.85;2.83;;;5.30;99.90;;;;;;5028222;28;20033;-74
2023/01/05 05:15:55;;;;;;;8.88;4.57;;;5.40;99.90;;;;;;5020909;28;20038;-75
2023/01/05 05:18:21;;;;;;;7.75;4.38;;;5.30;99.90;;;;;;5025261;28;20500;-74
2023/01/05 05:20:49;;;;;;;5.10;2.83;;;5.10;99.90;;;;;;5028027;28;20049;-75
2023/01/05 05:23:15;;;;;;;5.25;3.00;;;5.10;99.90;;;;;;5028312;28;20541;-75
2023/01/05 05:25:41;;;;;;;7.53;2.75;;;5.00;99.90;;;;;;5034099;28;20041;-74
2023/01/05 05:28:06;;;;;;;7.50;2.75;;;5.10;99.90;;;;;;5037148;28;20391;-75
2023/01/05 05:30:32;;;;;;;7.00;2.90;;;5.10;99.90;;;;;;5033859;28;20113;-74
2023/01/05 05:32:57;;;;;;;5.95;3.22;;;5.10;99.90;;;;;;5025627;28;20877;-74
2023/01/05 05:35:23;;;;;;;3.90;2.30;;;5.20;99.90;;;;;;5030113;28;20442;-75
2023/01/05 05:37:49;;;;;;;7.75;2.92;;;5.20;99.90;;;;;;5024867;28;20049;-74
2023/01/05 05:40:14;;;;;;;5.63;3.13;;;5.20;99.90;;;;;;5033598;28;20090;-75
2023/01/05 05:42:40;;;;;;;7.10;3.10;;;5.20;99.90;;;;;;5028831;28;20029;-74
2023/01/05 05:45:06;;;;;;;7.40;2.83;;;5.20;99.90;;;;;;5025760;28;20047;-75
2023/01/05 05:47:32;;;;;;;5.15;3.00;;;5.20;99.90;;;;;;5030721;28;20040;-75
2023/01/05 05:49:57;;;;;;;5.55;2.88;;;5.20;99.90;;;;;;5039400;28;20025;-74
2023/01/05 05:52:23;;;;;;;8.23;2.47;;;5.20;99.90;;;;;;5032498;28;20046;-74
2023/01/05 05:54:49;;;;;;;3.72;2.10;;;5.20;99.90;;;;;;5024525;28;20033;-74
2023/01/05 05:57:16;;;;;;;8.30;3.67;;;5.30;99.90;;;;;;5031993;28;20029;-74
2023/01/05 05:59:42;;;;;;;5.95;2.95;;;5.20;99.90;;;;;;5030757;28;20025;-75
2023/01/05 06:02:07;;;;;;;6.07;2.65;;;5.30;99.90;;;;;;5026960;28;20029;-74
2023/01/05 06:04:33;;;;;;;5.68;2.83;;;5.30;99.90;;;;;;5033371;28;20030;-74
2023/01/05 06:06:59;;;;;;;7.35;2.72;;;5.40;99.90;;;;;;5029671;28;20017;-75
2023/01/05 06:09:24;;;;;;;4.43;2.30;;;5.40;99.90;;;;;;5034166;28;20033;-75
2023/01/05 06:11:50;;;;;;;7.43;2.22;;;5.40;99.90;;;;;;5036049;28;20544;-74
2023/01/05 06:14:16;;;;;;;6.20;2.80;;;5.40;99.90;;;;;;5036232;28;20104;-75
2023/01/05 06:16:41;;;;;;;4.53;2.65;;;5.40;99.90;;;;;;5032738;28;20113;-74
2023/01/05 06:19:08;;;;;;;8.52;3.42;;;5.40;99.90;;;;;;5039142;28;20107;-75
2023/01/05 06:21:34;;;;;;;27.95;13.88;;;5.30;99.90;;;;;;5031406;28;20046;-75
2023/01/05 06:24:00;;;;;;;17.52;7.75;;;5.30;99.90;;;;;;5039701;28;20078;-74
2023/01/05 06:26:25;;;;;;;13.38;6.55;;;5.20;99.90;;;;;;5031597;28;20029;-74
2023/01/05 06:28:51;;;;;;;6.95;3.38;;;5.20;99.90;;;;;;5037165;28;20029;-74
2023/01/05 06:31:17;;;;;;;5.85;3.22;;;5.10;99.90;;;;;;5028128;28;20124;-75
2023/01/05 06:33:42;;;;;;;4.85;2.67;;;5.10;99.90;;;;;;5033690;28;20033;-74
2023/01/05 06:36:08;;;;;;;4.60;2.30;;;5.00;99.90;;;;;;5037440;28;20369;-74
2023/01/05 06:38:34;;;;;;;6.93;2.67;;;5.00;99.90;;;;;;5036610;28;20634;-74
2023/01/05 06:40:59;;;;;;;3.65;2.28;;;5.10;99.90;;;;;;5027423;28;20037;-74
2023/01/05 06:43:25;;;;;;;5.30;2.65;;;5.00;99.90;;;;;;5031480;28;20025;-74
2023/01/05 06:45:51;;;;;;;6.13;2.30;;;4.80;99.90;;;;;;5028222;28;20030;-75
2023/01/05 06:48:17;;;;;;;6.75;2.50;;;4.90;99.90;;;;;;5033707;28;20060;-74
2023/01/05 06:50:43;;;;;;;6.05;2.92;;;5.10;99.90;;;;;;5048089;28;20052;-75
2023/01/05 06:53:09;;;;;;;5.43;2.30;;;5.00;99.90;;;;;;5026019;28;20394;-75
2023/01/05 06:55:37;;;;;;;8.32;2.70;;;4.90;99.90;;;;;;5029622;28;20083;-73
2023/01/05 06:58:02;;;;;;;7.60;4.03;;;4.90;99.90;;;;;;5033187;28;20035;-74
2023/01/05 07:00:28;;;;;;;6.10;3.25;;;4.80;99.90;;;;;;5032631;28;20033;-74
2023/01/05 07:02:54;;;;;;;9.52;4.20;;;4.80;99.90;;;;;;5029545;28;20025;-73
2023/01/05 07:05:22;;;;;;;6.20;3.60;;;4.80;99.90;;;;;;5026412;28;20064;-73
2023/01/05 07:07:47;;;;;;;6.20;3.30;;;4.90;99.90;;;;;;5034028;28;20467;-73
2023/01/05 07:10:13;;;;;;;10.57;3.50;;;4.90;99.90;;;;;;5071291;28;20035;-74
2023/01/05 07:12:39;;;;;;;7.00;3.05;;;5.00;99.90;;;;;;5027396;28;20780;-74
2023/01/05 07:15:05;;;;;;;6.97;3.30;;;5.00;99.90;;;;;;5032970;28;20108;-74
2023/01/05 07:17:31;;;;;;;6.32;3.08;;;5.00;99.90;;;;;;5035631;28;20029;-74
2023/01/05 07:19:57;;;;;;;7.85;2.83;;;5.10;99.90;;;;;;5028627;28;20037;-74
2023/01/05 07:22:23;;;;;;;4.93;2.45;;;5.00;99.90;;;;;;5023740;28;20283;-73
2023/01/05 07:24:48;;;;;;;6.70;2.78;;;5.00;99.90;;;;;;5027099;28;20061;-74
2023/01/05 07:27:14;;;;;;;7.43;3.70;;;5.00;99.90;;;;;;5027764;28;20036;-74
2023/01/05 07:29:40;;;;;;;5.65;3.22;;;5.00;99.90;;;;;;5037907;28;20033;-74
2023/01/05 07:32:06;;;;;;;6.47;3.63;;;5.00;99.90;;;;;;5024306;28;20140;-74
2023/01/05 07:34:31;;;;;;;6.38;3.67;;;5.00;99.90;;;;;;5027953;28;20029;-74
2023/01/05 07:36:57;;;;;;;8.50;3.25;;;5.00;99.90;;;;;;5031681;28;20032;-73
2023/01/05 07:39:23;;;;;;;7.18;3.63;;;5.00;99.90;;;;;;5027739;28;20036;-74
2023/01/05 07:41:48;;;;;;;5.90;3.20;;;5.10;99.90;;;;;;5032218;28;20028;-74
2023/01/05 07:44:14;;;;;;;6.32;3.03;;;5.10;99.90;;;;;;5022126;28;20029;-74
2023/01/05 07:46:40;;;;;;;6.25;3.20;;;5.10;99.90;;;;;;5036741;28;20033;-75
2023/01/05 07:49:05;;;;;;;6.07;2.53;;;5.10;99.90;;;;;;5031769;28;20033;-74
2023/01/05 07:51:31;;;;;;;5.38;2.38;;;5.20;99.90;;;;;;5024378;28;20515;-74
2023/01/05 07:53:57;;;;;;;5.20;2.67;;;5.20;99.90;;;;;;5029936;28;20029;-74
2023/01/05 07:56:22;;;;;;;4.10;2.08;;;5.20;99.90;;;;;;5037079;28;20517;-82
2023/01/05 07:58:48;;;;;;;6.80;2.47;;;5.20;99.90;;;;;;5035445;28;20037;-75
2023/01/05 08:01:17;;;;;;;5.55;2.42;;;5.30;99.90;;;;;;5034701;28;20030;-76
2023/01/05 08:03:43;;;;;;;9.57;4.00;;;5.40;99.90;;;;;;5035543;28;20026;-73
2023/01/05 08:06:11;;;;;;;7.60;4.32;;;5.10;99.90;;;;;;5035687;28;20475;-74
2023/01/05 08:08:37;;;;;;;7.43;4.28;;;4.90;99.90;;;;;;5030288;28;20033;-74
2023/01/05 08:11:04;;;;;;;10.88;4.63;;;5.00;99.90;;;;;;5030003;28;20044;-73
2023/01/05 08:16:14;;;;;;;12.15;5.40;;;5.00;99.90;;;;;;5038912;28;20052;-73
2023/01/05 08:18:40;;;;;;;6.68;3.83;;;5.00;99.90;;;;;;5037041;28;20029;-73
2023/01/05 08:21:07;;;;;;;7.10;3.90;;;5.00;99.90;;;;;;5040726;28;20195;-73
2023/01/05 08:23:33;;;;;;;7.22;4.28;;;5.00;99.90;;;;;;5042453;28;20075;-73
2023/01/05 08:26:12;;;;;;;7.15;3.53;;;5.10;99.90;;;;;;5040611;28;20036;-74
2023/01/05 08:28:38;;;;;;;6.85;2.78;;;5.20;99.90;;;;;;5038113;28;20130;-74
2023/01/05 08:31:06;;;;;;;6.70;3.13;;;5.30;99.90;;;;;;5040235;28;20398;-73
2023/01/05 08:33:33;;;;;;;6.15;3.05;;;5.50;99.90;;;;;;5040333;28;20021;-74
2023/01/05 08:35:59;;;;;;;4.43;2.55;;;5.50;99.90;;;;;;5040953;28;20025;-74
2023/01/05 08:38:25;;;;;;;8.25;2.92;;;5.70;99.90;;;;;;5035731;28;20494;-77
2023/01/05 08:40:51;;;;;;;9.27;5.07;;;5.70;99.90;;;;;;5039880;28;20025;-76
2023/01/05 08:43:17;;;;;;;10.55;6.25;;;5.70;99.90;;;;;;5034562;28;20523;-76
2023/01/05 08:45:46;;;;;;;9.40;4.63;;;5.80;99.90;;;;;;5036788;28;20475;-75
2023/01/05 08:48:12;;;;;;;8.27;4.10;;;5.80;99.90;;;;;;5033740;28;20033;-76
2023/01/05 08:50:37;;;;;;;7.68;4.07;;;5.70;99.90;;;;;;5036556;28;20091;-77
2023/01/05 08:53:03;;;;;;;14.02;8.40;;;5.70;99.90;;;;;;5037446;28;20390;-76
2023/01/05 08:55:29;;;;;;;13.15;8.45;;;6.00;99.90;;;;;;5033522;28;20033;-76
2023/01/05 08:57:56;;;;;;;18.73;6.40;;;6.00;99.90;;;;;;5033863;28;20083;-75
2023/01/05 09:00:22;;;;;;;46.90;7.70;;;6.20;99.90;;;;;;5039078;28;20029;-75
2023/01/05 09:02:47;;;;;;;7.15;3.83;;;6.20;99.90;;;;;;5041355;28;20036;-78
2023/01/05 09:05:13;;;;;;;6.90;3.75;;;6.10;99.90;;;;;;5034323;28;20498;-76
2023/01/05 09:07:39;;;;;;;5.65;3.20;;;6.10;99.90;;;;;;5038594;28;20041;-76
2023/01/05 09:10:08;;;;;;;8.15;3.67;;;5.90;99.90;;;;;;5041205;28;20078;-75
2023/01/05 09:12:35;;;;;;;6.05;3.53;;;5.80;99.90;;;;;;5040576;28;20564;-75
2023/01/05 09:15:01;;;;;;;8.30;3.95;;;5.90;99.90;;;;;;5047162;28;20108;-75
2023/01/05 09:17:27;;;;;;;8.68;4.63;;;6.00;99.90;;;;;;5048206;28;20108;-76
2023/01/05 09:19:52;;;;;;;13.88;5.25;;;6.00;99.90;;;;;;5046884;28;20038;-76
2023/01/05 09:22:18;;;;;;;9.25;4.70;;;6.10;99.90;;;;;;5045999;28;20449;-76
2023/01/05 09:24:44;;;;;;;7.97;4.07;;;6.00;99.90;;;;;;5048001;28;20025;-77
2023/01/05 09:27:09;;;;;;;8.80;6.03;;;6.10;99.90;;;;;;5047583;28;20033;-77
2023/01/05 09:29:35;;;;;;;13.05;8.77;;;6.10;99.90;;;;;;5043333;28;20025;-76
2023/01/05 09:32:01;;;;;;;11.38;5.85;;;6.10;99.90;;;;;;5038817;28;20612;-73
2023/01/05 09:34:27;;;;;;;9.40;5.50;;;6.20;99.90;;;;;;5046464;28;20033;-76
2023/01/05 09:36:52;;;;;;;10.30;5.78;;;6.10;99.90;;;;;;5047480;28;20029;-74
2023/01/05 09:39:18;;;;;;;9.25;5.25;;;6.10;99.90;;;;;;5043737;28;20440;-76
2023/01/05 09:41:54;;;;;;;10.25;5.88;;;6.20;99.90;;;;;;5037578;28;20040;-77
2023/01/05 09:44:27;;;;;;;8.52;5.45;;;6.20;99.90;;;;;;5046553;28;20119;-74
2023/01/05 09:46:56;;;;;;;8.63;5.57;;;6.20;99.90;;;;;;5035462;28;20032;-76
2023/01/05 09:49:24;;;;;;;7.85;4.57;;;6.20;99.90;;;;;;5034780;28;20024;-76
2023/01/05 09:52:00;;;;;;;11.82;5.82;;;6.30;99.90;;;;;;5035586;28;20124;-77
2023/01/05 09:54:28;;;;;;;10.55;5.43;;;6.30;99.90;;;;;;5033010;28;20036;-77
2023/01/05 09:56:57;;;;;;;15.52;6.43;;;6.30;99.90;;;;;;5034355;28;20065;-77
2023/01/05 09:59:52;;;;;;;15.20;6.78;;;6.30;99.90;;;;;;5036525;28;20383;-76
2023/01/05 10:02:29;;;;;;;14.13;5.25;;;6.20;99.90;;;;;;5026159;28;20030;-76
2023/01/05 10:04:57;;;;;;;10.65;5.32;;;6.30;99.90;;;;;;5039601;28;20132;-75
2023/01/05 10:08:01;;;;;;;13.27;6.53;;;6.30;99.90;;;;;;5042317;28;20044;-75
2023/01/05 10:10:42;;;;;;;9.38;6.15;;;6.30;99.90;;;;;;5032643;28;20032;-75
2023/01/05 10:13:26;;;;;;;12.65;6.53;;;6.30;99.90;;;;;;5034717;28;20036;-76
2023/01/05 10:15:54;;;;;;;10.13;5.22;;;6.30;99.90;;;;;;5035527;28;20040;-76
2023/01/05 10:18:25;;;;;;;12.48;7.63;;;6.30;99.90;;;;;;5040182;28;20025;-76
2023/01/05 10:21:18;;;;;;;11.52;5.93;;;6.40;99.90;;;;;;5037802;28;20392;-75
2023/01/05 10:23:49;;;;;;;10.10;6.32;;;6.60;99.90;;;;;;5038316;28;20089;-75
2023/01/05 10:26:24;;;;;;;10.70;4.78;;;6.60;99.90;;;;;;5039587;28;20403;-75
2023/01/05 10:29:01;;;;;;;;;;;6.50;99.90;;;;;;5042274;28;20033;-75
2023/01/05 10:31:48;;;;;;;13.38;6.28;;;6.70;99.90;;;;;;5043101;28;20007;-75
2023/01/05 10:34:34;;;;;;;12.00;6.10;;;6.90;99.90;;;;;;5047683;28;20482;-75
2023/01/05 10:37:15;;;;;;;20.15;8.43;;;6.70;99.90;;;;;;5044654;28;20079;-75
2023/01/05 10:39:59;;;;;;;16.02;8.15;;;6.60;99.90;;;;;;5048323;28;20036;-75
2023/01/05 10:42:39;;;;;;;10.00;5.43;;;6.60;99.90;;;;;;5036375;28;20037;-75
2023/01/05 10:45:12;;;;;;;12.55;6.15;;;6.80;99.90;;;;;;5042107;28;20028;-75
2023/01/05 10:47:39;;;;;;;9.98;5.70;;;6.90;99.90;;;;;;5045856;28;20029;-76
2023/01/05 10:50:20;;;;;;;8.90;4.95;;;7.10;99.90;;;;;;5048116;28;20108;-75
2023/01/05 10:52:46;;;;;;;11.57;6.10;;;7.20;99.90;;;;;;5038678;28;20033;-76
2023/01/05 10:55:16;;;;;;;8.05;4.55;;;7.20;99.90;;;;;;5044447;28;20025;-75
2023/01/05 10:57:42;;;;;;;8.18;5.20;;;7.10;99.90;;;;;;5047677;28;20032;-74
2023/01/05 11:00:15;;;;;;;6.78;4.05;;;7.10;99.90;;;;;;5066977;28;20025;-76
2023/01/05 11:02:49;;;;;;;6.65;3.53;;;6.90;99.90;;;;;;5028469;28;20917;-75
2023/01/05 11:05:29;;;;;;;10.02;4.05;;;6.90;99.90;;;;;;5046757;28;20515;-76
2023/01/05 11:07:59;;;;;;;7.55;4.18;;;6.90;99.90;;;;;;5042383;28;20029;-75
2023/01/05 11:10:40;;;;;;;9.95;4.65;;;6.90;99.90;;;;;;5045956;28;20029;-75
2023/01/05 11:13:28;;;;;;;9.57;4.72;;;6.90;99.90;;;;;;5046521;28;20086;-75
2023/01/05 11:16:11;;;;;;;8.63;5.07;;;6.80;99.90;;;;;;5045238;28;20037;-75
2023/01/05 11:18:48;;;;;;;10.65;4.88;;;6.90;99.90;;;;;;5046317;28;20025;-75
2023/01/05 11:21:25;;;;;;;10.90;4.75;;;7.00;99.90;;;;;;5048037;28;20045;-75
2023/01/05 11:23:53;;;;;;;7.30;4.45;;;6.90;99.90;;;;;;5046822;28;20540;-75
2023/01/05 11:26:42;;;;;;;9.32;4.93;;;6.90;99.90;;;;;;5046100;28;20031;-75
2023/01/05 11:29:08;;;;;;;8.48;4.10;;;7.00;99.90;;;;;;5044557;28;20041;-75
2023/01/05 11:31:41;;;;;;;8.77;4.45;;;7.00;99.90;;;;;;5047060;28;20368;-75
2023/01/05 11:34:15;;;;;;;7.05;4.45;;;6.90;99.90;;;;;;5046952;28;20017;-75
2023/01/05 11:36:42;;;;;;;8.13;4.40;;;6.90;99.90;;;;;;5044504;28;20087;-76
2023/01/05 11:39:19;;;;;;;7.25;3.92;;;7.00;99.90;;;;;;5046110;28;20025;-75
2023/01/05 11:41:44;;;;;;;6.75;4.43;;;6.90;99.90;;;;;;5045429;28;20040;-75
2023/01/05 11:44:21;;;;;;;6.30;3.75;;;7.10;99.90;;;;;;5045476;28;20101;-75
2023/01/05 11:46:47;;;;;;;6.38;3.17;;;7.10;99.90;;;;;;5044329;28;20497;-75
2023/01/05 11:49:18;;;;;;;7.15;3.00;;;7.20;99.90;;;;;;5045669;28;20100;-76
2023/01/05 11:51:43;;;;;;;5.53;2.67;;;7.30;99.90;;;;;;5046203;28;20035;-78
2023/01/05 11:54:44;;;;;;;8.02;4.13;;;7.30;99.90;;;;;;5047473;28;20036;-75
2023/01/05 11:57:15;;;;;;;8.35;3.45;;;7.50;99.90;;;;;;5004575;28;20034;-76
2023/01/05 11:59:42;;;;;;;8.57;3.78;;;7.40;99.90;;;;;;5041044;28;20727;-78
2023/01/05 12:02:41;;;;;;;8.30;4.07;;;7.40;99.90;;;;;;5047384;28;20064;-78
2023/01/05 12:05:16;;;;;;;7.32;4.28;;;7.40;99.90;;;;;;5034632;28;20447;-78
2023/01/05 12:07:54;;;;;;;7.90;3.85;;;7.30;99.90;;;;;;5051969;28;20028;-79
2023/01/05 12:10:35;;;;;;;12.13;4.38;;;7.20;99.90;;;;;;5050368;28;20118;-77
2023/01/05 12:13:05;;;;;;;10.15;4.20;;;7.30;99.90;;;;;;5037127;28;20032;-79
2023/01/05 12:15:50;;;;;;;9.15;4.40;;;7.40;99.90;;;;;;5042381;28;20116;-77
2023/01/05 12:18:47;;;;;;;9.77;5.15;;;7.50;99.90;;;;;;5037962;28;20021;-77
2023/01/05 12:21:16;;;;;;;7.65;4.68;;;7.60;99.90;;;;;;5030687;28;20049;-76
2023/01/05 12:23:58;;;;;;;8.30;4.97;;;7.60;99.90;;;;;;5042429;28;20106;-75
2023/01/05 12:26:32;;;;;;;10.00;5.43;;;7.80;99.90;;;;;;5043933;28;20115;-75
2023/01/05 12:29:04;;;;;;;8.43;4.53;;;7.60;99.90;;;;;;5041658;28;20086;-74
2023/01/05 12:32:07;;;;;;;14.15;4.68;;;7.50;99.90;;;;;;5043363;28;20303;-78
2023/01/05 12:34:56;;;;;;;9.00;4.43;;;7.40;99.90;;;;;;5037889;28;20029;-77
2023/01/05 12:37:38;;;;;;;7.90;4.57;;;7.30;99.90;;;;;;5041192;28;20037;-76
2023/01/05 12:40:13;;;;;;;9.82;5.05;;;7.30;99.90;;;;;;5041994;28;20482;-76
2023/01/05 12:42:55;;;;;;;7.72;4.55;;;7.30;99.90;;;;;;5031624;28;20029;-75
2023/01/05 12:45:30;;;;;;;10.88;6.40;;;7.30;99.90;;;;;;5037406;28;20043;-76
2023/01/05 12:48:16;;;;;;;7.22;4.47;;;7.40;99.90;;;;;;5043387;28;20033;-76
2023/01/05 12:51:03;;;;;;;8.73;4.15;;;7.40;99.90;;;;;;5029074;28;20044;-76
2023/01/05 12:53:35;;;;;;;8.18;3.85;;;7.30;99.90;;;;;;5043188;28;20029;-76
2023/01/05 12:56:24;;;;;;;10.85;6.40;;;7.30;99.90;;;;;;5042346;28;20068;-76
2023/01/05 12:58:56;;;;;;;15.43;8.10;;;7.50;99.90;;;;;;5016224;28;20037;-76
2023/01/05 13:01:26;;;;;;;12.65;6.15;;;7.60;99.90;;;;;;5042674;28;20112;-76
2023/01/05 13:03:58;;;;;;;8.90;5.10;;;7.60;99.90;;;;;;5035118;28;20025;-75
2023/01/05 13:06:25;;;;;;;8.55;4.88;;;7.50;99.90;;;;;;5040673;28;20033;-76
2023/01/05 13:08:51;;;;;;;9.35;5.15;;;7.60;99.90;;;;;;5036969;28;20047;-76
2023/01/05 13:11:47;;;;;;;10.68;5.88;;;7.70;99.90;;;;;;5033584;28;20636;-77
2023/01/05 13:14:24;;;;;;;8.73;4.70;;;7.90;99.90;;;;;;5039224;28;20036;-76
2023/01/05 13:16:58;;;;;;;10.50;4.35;;;8.00;99.90;;;;;;5042894;28;20033;-76
2023/01/05 13:19:47;;;;;;;9.85;4.93;;;8.10;99.90;;;;;;5041698;28;20037;-77
2023/01/05 13:22:20;;;;;;;8.52;5.57;;;8.10;99.90;;;;;;5041059;28;20063;-76
2023/01/05 13:25:09;;;;;;;9.88;5.72;;;8.10;99.90;;;;;;5042320;28;20067;-76
2023/01/05 13:27:35;;;;;;;15.32;8.95;;;8.00;99.90;;;;;;5039588;28;20033;-75
2023/01/05 13:30:02;;;;;;;10.35;7.50;;;8.00;99.90;;;;;;5046943;28;20048;-80
2023/01/05 13:32:44;;;;;;;11.63;7.88;;;8.00;99.90;;;;;;5041093;28;20041;-74
2023/01/05 13:35:25;;;;;;;11.75;7.20;;;8.10;99.90;;;;;;5039599;28;20033;-73
2023/01/05 13:38:14;;;;;;;11.43;6.28;;;8.10;99.90;;;;;;5041703;28;20104;-74
2023/01/05 13:41:02;;;;;;;11.60;6.32;;;8.10;99.90;;;;;;5040602;28;20035;-75
2023/01/05 13:43:46;;;;;;;10.90;5.82;;;8.10;99.90;;;;;;5038628;28;20024;-74
2023/01/05 13:46:46;;;;;;;11.50;4.88;;;8.10;99.90;;;;;;5038454;28;20090;-74